Time;durP1;ratioP1;P1;durP2;ratioP2;P2;SDS_P1;SDS_P2;PMS_P1;PMS_P2;Temp;Humidity;BMP_temperature;BMP_pressure;BME280_temperature;BME280_humidity;BME280_pressure;Samples;Min_cycle;Max_cycle;Signal;HPM_P1;HPM_P2
2022/04/04 00:01:26;;;;;;;0.00;0.00;;;10.80;99.90;;;;;;5093173;28;20099;-71
2022/04/04 00:03:52;;;;;;;0.00;0.00;;;10.80;99.90;;;;;;5075051;28;20073;-71
2022/04/04 00:06:19;;;;;;;0.00;0.00;;;10.80;99.90;;;;;;5093066;28;20486;-70
2022/04/04 00:08:45;;;;;;;0.00;0.00;;;10.80;99.90;;;;;;5074735;28;20486;-70
2022/04/04 00:11:11;;;;;;;0.00;0.00;;;10.80;99.90;;;;;;5098763;28;20084;-70
2022/04/04 00:13:37;;;;;;;0.22;0.22;;;10.80;99.90;;;;;;5081798;28;20024;-70
2022/04/04 00:16:04;;;;;;;0.80;0.30;;;10.80;99.90;;;;;;5082617;28;20020;-71
2022/04/04 00:18:30;;;;;;;0.00;0.00;;;10.80;99.90;;;;;;5099616;28;20031;-71
2022/04/04 00:20:56;;;;;;;0.00;0.00;;;11.20;95.10;;;;;;5081281;28;20028;-70
2022/04/04 00:23:22;;;;;;;0.00;0.00;;;11.50;90.50;;;;;;5095452;28;20020;-71
2022/04/04 00:25:48;;;;;;;0.00;0.00;;;11.60;92.90;;;;;;5108829;28;20385;-70
2022/04/04 00:28:15;;;;;;;0.00;0.00;;;11.70;93.00;;;;;;5092836;28;20110;-71
2022/04/04 00:30:42;;;;;;;6.50;6.25;;;11.90;92.20;;;;;;5074664;28;20077;-70
2022/04/04 00:33:08;;;;;;;0.00;0.00;;;12.00;90.00;;;;;;5074340;28;20023;-71
2022/04/04 00:35:35;;;;;;;0.00;0.00;;;11.90;90.90;;;;;;5074923;28;20060;-70
2022/04/04 00:38:03;;;;;;;0.00;0.00;;;12.00;80.60;;;;;;5073868;28;20225;-71
2022/04/04 00:40:30;;;;;;;0.00;0.00;;;12.00;91.10;;;;;;5092984;28;20056;-71
2022/04/04 00:42:57;;;;;;;0.00;0.00;;;12.00;91.50;;;;;;5074015;28;20027;-71
2022/04/04 00:45:23;;;;;;;0.00;0.00;;;11.80;88.10;;;;;;5092806;28;20028;-71
2022/04/04 00:47:49;;;;;;;0.00;0.00;;;11.90;91.50;;;;;;5108276;28;20444;-71
2022/04/04 00:50:15;;;;;;;0.10;0.10;;;11.90;85.10;;;;;;5107913;28;20115;-71
2022/04/04 00:52:41;;;;;;;7.93;7.63;;;12.40;67.80;;;;;;5093097;28;20082;-72
2022/04/04 00:55:09;;;;;;;0.93;0.93;;;12.70;72.40;;;;;;5092724;28;20020;-71
2022/04/04 00:57:37;;;;;;;0.73;0.73;;;12.80;71.30;;;;;;5074525;28;20140;-71
2022/04/04 01:00:11;;;;;;;0.00;0.00;;;12.90;64.80;;;;;;5102606;28;20031;-71
2022/04/04 01:02:39;;;;;;;0.00;0.00;;;13.10;62.70;;;;;;5074939;28;20031;-70
2022/04/04 01:05:06;;;;;;;0.00;0.00;;;13.20;60.50;;;;;;5107957;28;20546;-70
2022/04/04 01:07:32;;;;;;;0.85;0.65;;;13.30;58.80;;;;;;5111596;28;20483;-70
2022/04/04 01:09:58;;;;;;;0.00;0.00;;;13.40;58.60;;;;;;5120554;28;20020;-71
2022/04/04 01:12:24;;;;;;;0.35;0.35;;;13.40;58.80;;;;;;5087286;28;20032;-70
2022/04/04 01:14:50;;;;;;;2.53;2.28;;;13.30;60.20;;;;;;5099213;28;20024;-69
2022/04/04 01:17:27;;;;;;;0.00;0.00;;;13.20;62.60;;;;;;5099529;28;20085;-70
2022/04/04 01:19:55;;;;;;;0.10;0.10;;;13.10;64.40;;;;;;5085667;28;20504;-69
2022/04/04 01:22:21;;;;;;;4.80;3.20;;;13.00;66.80;;;;;;5091944;28;20107;-69
2022/04/04 01:24:47;;;;;;;1.45;0.80;;;13.00;71.20;;;;;;5092030;28;20024;-69
2022/04/04 01:27:14;;;;;;;1.35;0.63;;;13.10;70.20;;;;;;5089370;28;20036;-69
2022/04/04 01:29:40;;;;;;;0.00;0.00;;;13.10;72.20;;;;;;5104055;28;20028;-70
2022/04/04 01:32:08;;;;;;;0.20;0.20;;;13.10;74.20;;;;;;5106388;28;20165;-71
2022/04/04 01:34:34;;;;;;;0.15;0.15;;;13.10;74.80;;;;;;5085411;28;20024;-70
2022/04/04 01:37:01;;;;;;;0.75;0.75;;;13.20;76.00;;;;;;5097581;28;20036;-71
2022/04/04 01:39:27;;;;;;;19.08;4.50;;;13.20;78.20;;;;;;5080963;28;20110;-71
2022/04/04 01:41:53;;;;;;;0.10;0.10;;;13.20;78.20;;;;;;5077565;28;20434;-71
2022/04/04 01:44:19;;;;;;;2.85;1.35;;;13.20;80.10;;;;;;5074594;28;20027;-71
2022/04/04 01:46:45;;;;;;;0.00;0.00;;;13.20;81.20;;;;;;5094260;28;20170;-72
2022/04/04 01:49:11;;;;;;;0.03;0.03;;;13.20;82.90;;;;;;5086156;28;20026;-71
2022/04/04 01:51:38;;;;;;;3.33;3.00;;;13.30;84.40;;;;;;5106620;28;20026;-71
2022/04/04 01:54:05;;;;;;;0.70;0.70;;;13.40;84.00;;;;;;5100459;28;20482;-73
2022/04/04 01:56:32;;;;;;;0.00;0.00;;;13.40;85.10;;;;;;5088835;28;20492;-71
2022/04/04 01:58:59;;;;;;;0.28;0.28;;;13.50;84.80;;;;;;5096854;28;20028;-72
2022/04/04 02:01:26;;;;;;;0.00;0.00;;;13.60;85.00;;;;;;5095622;28;20363;-72
2022/04/04 02:03:55;;;;;;;0.00;0.00;;;13.60;84.10;;;;;;5077755;28;20016;-72
2022/04/04 02:06:22;;;;;;;0.15;0.15;;;13.80;82.90;;;;;;5095384;28;20070;-72
2022/04/04 02:08:48;;;;;;;0.00;0.00;;;13.90;81.50;;;;;;5094931;28;20620;-72
2022/04/04 02:11:16;;;;;;;0.00;0.00;;;14.20;82.50;;;;;;5077536;28;20404;-72
2022/04/04 02:13:43;;;;;;;0.00;0.00;;;14.40;82.20;;;;;;5084749;28;20532;-72
2022/04/04 02:16:09;;;;;;;0.55;0.55;;;14.60;79.60;;;;;;5114923;28;20103;-72
2022/04/04 02:18:36;;;;;;;0.00;0.00;;;14.70;78.60;;;;;;5106943;28;20423;-71
2022/04/04 02:21:03;;;;;;;0.00;0.00;;;14.90;77.70;;;;;;5115548;28;20529;-71
2022/04/04 02:23:30;;;;;;;0.57;0.57;;;15.10;76.80;;;;;;5113493;28;20497;-72
2022/04/04 02:25:57;;;;;;;0.05;0.05;;;15.40;77.20;;;;;;5097097;28;20034;-70
2022/04/04 02:28:25;;;;;;;0.00;0.00;;;15.70;74.70;;;;;;5110592;28;20028;-71
2022/04/04 02:30:51;;;;;;;0.00;0.00;;;15.80;74.10;;;;;;5113775;27;20781;-71
2022/04/04 02:33:19;;;;;;;0.00;0.00;;;16.00;73.10;;;;;;5114371;28;20099;-72
2022/04/04 02:35:46;;;;;;;0.20;0.20;;;16.20;71.50;;;;;;5105746;28;20023;-71
2022/04/04 02:38:13;;;;;;;0.45;0.45;;;16.30;71.70;;;;;;5118234;27;20364;-71
2022/04/04 02:40:40;;;;;;;0.00;0.00;;;16.40;71.20;;;;;;5117940;27;20427;-70
2022/04/04 02:43:08;;;;;;;0.63;0.63;;;16.50;71.60;;;;;;5109985;27;20032;-72
2022/04/04 02:45:34;;;;;;;0.05;0.05;;;16.60;70.10;;;;;;5095335;27;20046;-72
2022/04/04 02:48:00;;;;;;;0.00;0.00;;;16.60;70.50;;;;;;5105874;27;20027;-72
2022/04/04 02:50:27;;;;;;;0.20;0.20;;;16.80;68.50;;;;;;5111103;27;21322;-71
2022/04/04 02:52:53;;;;;;;0.60;0.60;;;16.80;68.10;;;;;;5110149;27;20019;-71
2022/04/04 02:58:04;;;;;;;0.00;0.00;;;17.10;66.00;;;;;;5114164;27;20119;-71
2022/04/04 03:00:30;;;;;;;0.17;0.17;;;17.20;64.90;;;;;;5084346;27;20023;-72
2022/04/04 03:02:57;;;;;;;26.73;25.00;;;17.30;64.20;;;;;;5083065;28;20466;-73
2022/04/04 03:05:24;;;;;;;2.50;2.38;;;17.50;63.50;;;;;;5088370;27;20030;-73
2022/04/04 03:07:51;;;;;;;0.00;0.00;;;17.60;63.30;;;;;;5100255;27;20045;-73
2022/04/04 03:10:17;;;;;;;0.00;0.00;;;17.70;62.50;;;;;;5098273;27;20016;-73
2022/04/04 03:12:46;;;;;;;1.10;1.00;;;17.80;63.30;;;;;;5110699;27;20465;-73
2022/04/04 03:15:15;;;;;;;1.48;1.48;;;17.90;62.00;;;;;;5132002;27;20109;-73
2022/04/04 03:17:43;;;;;;;0.00;0.00;;;18.00;60.60;;;;;;5127773;27;20109;-73
2022/04/04 03:20:12;;;;;;;0.00;0.00;;;18.10;60.50;;;;;;5113103;27;20102;-74
2022/04/04 03:22:43;;;;;;;0.10;0.10;;;18.10;60.00;;;;;;5132098;27;20050;-72
2022/04/04 03:25:10;;;;;;;0.35;0.28;;;18.30;59.70;;;;;;5105154;27;20110;-73
2022/04/04 03:27:38;;;;;;;0.00;0.00;;;18.20;59.90;;;;;;5119872;27;20464;-73
2022/04/04 03:30:07;;;;;;;0.00;0.00;;;18.30;58.30;;;;;;5140293;27;20110;-73
2022/04/04 03:32:33;;;;;;;0.00;0.00;;;18.40;59.20;;;;;;5126473;27;20049;-73
2022/04/04 03:35:00;;;;;;;0.25;0.25;;;18.60;59.40;;;;;;5129432;27;21665;-73
2022/04/04 03:37:27;;;;;;;0.08;0.08;;;18.80;57.40;;;;;;5116782;27;20521;-74
2022/04/04 03:39:53;;;;;;;0.00;0.00;;;19.00;57.30;;;;;;5135518;27;20132;-73
2022/04/04 03:42:20;;;;;;;1.38;1.27;;;19.30;56.30;;;;;;5133134;27;20095;-73
2022/04/04 03:44:47;;;;;;;1.77;1.67;;;19.20;55.90;;;;;;5126965;27;20118;-75
2022/04/04 03:47:13;;;;;;;0.00;0.00;;;19.40;56.10;;;;;;5108148;27;20140;-73
2022/04/04 03:49:40;;;;;;;0.00;0.00;;;19.20;56.50;;;;;;5126117;27;20026;-72
2022/04/04 03:52:07;;;;;;;0.40;0.40;;;19.40;55.40;;;;;;5128103;27;20015;-72
2022/04/04 03:54:34;;;;;;;1.90;1.77;;;19.40;54.90;;;;;;5122512;27;20023;-74
2022/04/04 03:57:00;;;;;;;11.30;1.35;;;19.40;56.20;;;;;;5115711;27;20096;-73
2022/04/04 03:59:27;;;;;;;14.23;2.33;;;19.10;57.30;;;;;;5120345;27;20071;-73
2022/04/04 04:01:53;;;;;;;4.07;1.80;;;19.00;56.00;;;;;;5130489;27;20499;-72
2022/04/04 04:04:19;;;;;;;1.10;0.98;;;18.90;55.90;;;;;;5108582;27;20120;-73
2022/04/04 04:06:45;;;;;;;0.00;0.00;;;19.10;56.40;;;;;;5124135;27;20452;-74
2022/04/04 04:09:12;;;;;;;0.00;0.00;;;19.40;55.90;;;;;;5134426;27;20080;-74
2022/04/04 04:11:38;;;;;;;0.00;0.00;;;19.50;55.10;;;;;;5122673;27;20473;-74
2022/04/04 04:14:05;;;;;;;6.93;0.47;;;19.70;55.30;;;;;;5106787;27;20027;-74
2022/04/04 04:16:31;;;;;;;0.00;0.00;;;19.90;55.20;;;;;;5106074;27;20465;-73
2022/04/04 04:18:57;;;;;;;1.15;1.15;;;20.00;55.00;;;;;;5111999;27;20023;-74
2022/04/04 04:21:23;;;;;;;0.30;0.30;;;20.20;54.50;;;;;;5124429;27;20020;-73
2022/04/04 04:23:51;;;;;;;0.38;0.38;;;20.30;55.00;;;;;;5132887;27;20035;-73
2022/04/04 04:26:25;;;;;;;0.52;0.52;;;20.40;54.90;;;;;;5112527;27;20035;-74
2022/04/04 04:28:51;;;;;;;0.30;0.30;;;20.60;54.80;;;;;;5120385;27;20023;-72
2022/04/04 04:31:18;;;;;;;3.08;1.98;;;20.70;54.20;;;;;;5108495;27;20256;-72
2022/04/04 04:33:44;;;;;;;0.00;0.00;;;20.70;54.60;;;;;;5105988;27;20090;-73
2022/04/04 04:36:10;;;;;;;1.65;1.65;;;20.80;53.80;;;;;;5136133;27;20030;-72
2022/04/04 04:38:36;;;;;;;8.68;3.72;;;21.00;53.30;;;;;;5121918;27;20050;-72
2022/04/04 04:41:03;;;;;;;11.18;4.88;;;21.00;53.30;;;;;;5117327;27;20071;-71
2022/04/04 04:43:29;;;;;;;0.00;0.00;;;20.90;53.40;;;;;;5113014;27;20051;-74
2022/04/04 04:45:55;;;;;;;2.20;2.05;;;20.90;54.20;;;;;;5122669;27;20030;-72
2022/04/04 04:48:21;;;;;;;6.15;1.40;;;21.10;53.80;;;;;;5128918;27;20073;-72
2022/04/04 04:50:48;;;;;;;0.30;0.30;;;21.30;53.50;;;;;;5129481;27;20029;-72
2022/04/04 04:53:14;;;;;;;0.68;0.57;;;21.40;53.30;;;;;;5112302;27;20040;-73
2022/04/04 04:55:40;;;;;;;0.00;0.00;;;21.40;53.20;;;;;;5121079;27;20742;-74
2022/04/04 04:58:07;;;;;;;7.38;3.70;;;21.50;53.10;;;;;;5099211;27;20469;-75
2022/04/04 05:00:33;;;;;;;0.00;0.00;;;21.60;52.80;;;;;;5119572;27;20034;-75
2022/04/04 05:05:43;;;;;;;0.00;0.00;;;21.20;54.40;;;;;;5126491;27;20065;-75
2022/04/04 05:08:10;;;;;;;0.00;0.00;;;21.20;54.60;;;;;;5108758;27;20043;-73
2022/04/04 05:10:36;;;;;;;0.57;0.57;;;21.40;53.80;;;;;;5108015;27;20096;-73
2022/04/04 05:13:02;;;;;;;2.47;2.38;;;21.60;54.50;;;;;;5131633;27;20517;-72
2022/04/04 05:15:29;;;;;;;7.22;6.88;;;21.40;54.00;;;;;;5126908;27;20054;-72
2022/04/04 05:17:55;;;;;;;2.70;2.60;;;21.30;53.80;;;;;;5126175;27;20027;-73
2022/04/04 05:20:22;;;;;;;0.28;0.28;;;21.40;53.40;;;;;;5126913;27;20076;-73
2022/04/04 05:22:48;;;;;;;2.03;1.95;;;21.40;54.20;;;;;;5111935;27;20029;-70
2022/04/04 05:25:15;;;;;;;5.38;2.35;;;21.40;53.90;;;;;;5130689;27;20042;-72
2022/04/04 05:27:42;;;;;;;0.50;0.50;;;21.30;54.20;;;;;;5123915;27;20020;-71
2022/04/04 05:30:09;;;;;;;0.82;0.57;;;21.20;54.70;;;;;;5135138;27;20606;-73
2022/04/04 05:32:38;;;;;;;0.10;0.10;;;21.50;55.30;;;;;;5134861;27;20534;-72
2022/04/04 05:35:08;;;;;;;0.80;0.40;;;21.90;53.80;;;;;;5115966;27;20022;-71
2022/04/04 05:37:34;;;;;;;0.10;0.10;;;21.70;55.20;;;;;;5106755;27;20031;-72
2022/04/04 05:40:01;;;;;;;4.78;3.67;;;21.70;55.50;;;;;;5124788;27;20028;-71
2022/04/04 05:42:29;;;;;;;1.13;1.02;;;21.50;59.80;;;;;;5107967;27;20038;-73
2022/04/04 05:44:55;;;;;;;0.35;0.35;;;21.60;60.60;;;;;;5125857;27;20101;-74
2022/04/04 05:47:21;;;;;;;1.65;0.75;;;21.30;63.20;;;;;;5116352;27;20063;-73
2022/04/04 05:49:50;;;;;;;0.00;0.00;;;21.30;62.40;;;;;;5128608;27;20106;-71
2022/04/04 05:52:18;;;;;;;0.00;0.00;;;21.40;62.90;;;;;;5111618;27;20023;-73
2022/04/04 05:55:01;;;;;;;0.17;0.17;;;21.50;62.20;;;;;;5122109;27;20019;-75
2022/04/04 05:57:35;;;;;;;7.03;3.17;;;21.50;62.20;;;;;;5120005;27;20028;-75
2022/04/04 06:00:01;;;;;;;0.25;0.25;;;21.20;61.80;;;;;;5123343;27;20058;-73
2022/04/04 06:02:27;;;;;;;7.35;3.92;;;21.40;62.90;;;;;;5115241;27;20033;-77
2022/04/04 06:04:54;;;;;;;3.53;1.08;;;21.40;58.50;;;;;;5129842;27;20511;-72
2022/04/04 06:07:20;;;;;;;2.45;1.13;;;21.40;57.20;;;;;;5103947;27;20048;-75
2022/04/04 06:09:46;;;;;;;1.17;1.08;;;21.60;56.40;;;;;;5135104;27;20715;-74
2022/04/04 06:12:12;;;;;;;5.40;2.83;;;21.70;55.40;;;;;;5126333;27;20045;-74
2022/04/04 06:14:38;;;;;;;2.05;1.95;;;21.70;55.20;;;;;;5130258;27;20383;-74
2022/04/04 06:17:05;;;;;;;0.85;0.85;;;21.70;57.10;;;;;;5135084;27;20102;-73
2022/04/04 06:19:35;;;;;;;8.82;7.97;;;22.00;56.20;;;;;;5138055;27;20459;-73
2022/04/04 06:22:05;;;;;;;2.50;2.38;;;22.00;55.50;;;;;;5136158;27;20023;-72
2022/04/04 06:24:31;;;;;;;0.52;0.40;;;21.80;56.60;;;;;;5137384;27;20391;-75
2022/04/04 06:26:58;;;;;;;0.90;0.47;;;21.70;57.00;;;;;;5118816;27;20019;-74
2022/04/04 06:29:24;;;;;;;0.95;0.95;;;21.90;55.40;;;;;;5111502;27;20566;-73
2022/04/04 06:31:58;;;;;;;4.45;4.15;;;22.00;55.30;;;;;;5128267;27;20080;-73
2022/04/04 06:34:25;;;;;;;1.67;1.60;;;22.20;55.50;;;;;;5124685;27;20023;-74
2022/04/04 06:36:52;;;;;;;1.10;0.65;;;22.20;56.60;;;;;;5123009;27;20032;-73
2022/04/04 06:39:18;;;;;;;0.15;0.15;;;22.20;56.20;;;;;;5109460;27;20385;-75
2022/04/04 06:41:48;;;;;;;1.83;0.30;;;22.00;56.50;;;;;;5125834;27;20045;-73
2022/04/04 06:44:16;;;;;;;11.50;0.90;;;22.10;56.20;;;;;;5129314;27;20049;-73
2022/04/04 06:46:43;;;;;;;9.15;8.35;;;22.00;55.90;;;;;;5136896;27;20016;-74
2022/04/04 06:49:09;;;;;;;0.13;0.13;;;21.90;56.00;;;;;;5142897;27;20031;-71
2022/04/04 06:51:39;;;;;;;1.08;1.02;;;21.90;56.00;;;;;;5121373;27;20568;-71
2022/04/04 06:54:05;;;;;;;1.40;1.40;;;21.90;56.20;;;;;;5125022;27;20114;-71
2022/04/04 06:56:32;;;;;;;0.20;0.20;;;22.10;56.20;;;;;;5135449;27;20019;-71
2022/04/04 06:58:59;;;;;;;5.55;5.18;;;22.20;55.10;;;;;;5132141;27;20024;-71
2022/04/04 07:01:26;;;;;;;0.75;0.75;;;22.20;54.20;;;;;;5135242;27;20027;-71
2022/04/04 07:03:52;;;;;;;3.53;1.13;;;22.20;54.10;;;;;;5114176;27;20034;-71
2022/04/04 07:06:26;;;;;;;0.10;0.10;;;22.00;55.10;;;;;;5102323;27;20047;-72
2022/04/04 07:08:52;;;;;;;0.00;0.00;;;22.10;53.40;;;;;;5109858;27;20038;-71
2022/04/04 07:11:18;;;;;;;9.55;0.70;;;22.10;52.60;;;;;;5122159;27;20104;-72
2022/04/04 07:13:47;;;;;;;1.70;0.57;;;22.00;52.40;;;;;;5136891;27;20487;-72
2022/04/04 07:16:13;;;;;;;1.10;1.00;;;22.20;51.50;;;;;;5133581;27;20046;-71
2022/04/04 07:18:39;;;;;;;0.00;0.00;;;22.40;50.10;;;;;;5130836;27;20500;-72
2022/04/04 07:21:05;;;;;;;0.45;0.35;;;22.30;49.80;;;;;;5123938;27;20654;-71
2022/04/04 07:23:31;;;;;;;0.77;0.77;;;22.30;51.00;;;;;;5126779;27;20108;-70
2022/04/04 07:25:57;;;;;;;3.53;3.25;;;22.40;50.20;;;;;;5125091;27;20023;-71
2022/04/04 07:28:23;;;;;;;0.05;0.05;;;22.60;49.00;;;;;;5120841;27;20035;-71
2022/04/04 07:30:52;;;;;;;0.20;0.20;;;22.40;48.80;;;;;;5124560;27;20112;-70
2022/04/04 07:33:19;;;;;;;1.20;0.43;;;22.30;49.90;;;;;;5125767;27;20011;-71
2022/04/04 07:35:46;;;;;;;1.00;1.00;;;22.50;49.10;;;;;;5097581;27;20016;-71
2022/04/04 07:38:13;;;;;;;0.25;0.25;;;22.70;48.40;;;;;;5122008;27;20030;-72
2022/04/04 07:40:40;;;;;;;2.00;1.13;;;22.80;47.70;;;;;;5121766;27;20034;-71
2022/04/04 07:43:06;;;;;;;10.57;4.32;;;23.00;47.20;;;;;;5107039;27;20027;-72
2022/04/04 07:45:32;;;;;;;0.75;0.47;;;22.70;46.90;;;;;;5103450;27;20034;-71
2022/04/04 07:47:59;;;;;;;0.88;0.43;;;22.50;47.30;;;;;;5103180;27;20846;-71
2022/04/04 07:50:26;;;;;;;0.00;0.00;;;22.60;47.40;;;;;;5128675;27;20119;-71
2022/04/04 07:52:53;;;;;;;2.92;0.68;;;22.80;46.70;;;;;;5126629;27;20102;-70
2022/04/04 07:55:19;;;;;;;0.45;0.30;;;23.00;46.30;;;;;;5121207;27;20026;-70
2022/04/04 07:57:46;;;;;;;0.05;0.05;;;23.20;45.70;;;;;;5127005;27;20055;-70
2022/04/04 08:00:21;;;;;;;1.63;1.60;;;23.50;45.40;;;;;;5126971;27;20131;-71
2022/04/04 08:02:48;;;;;;;0.00;0.00;;;23.60;45.30;;;;;;5129976;27;20089;-71
2022/04/04 08:05:14;;;;;;;0.00;0.00;;;23.50;45.30;;;;;;5127519;27;20019;-71
2022/04/04 08:07:43;;;;;;;1.90;0.75;;;23.60;45.00;;;;;;5129503;27;20043;-71
2022/04/04 08:10:09;;;;;;;6.18;5.22;;;23.60;45.10;;;;;;5125711;27;20599;-70
2022/04/04 08:12:36;;;;;;;1.65;1.55;;;23.70;45.10;;;;;;5106969;27;20241;-70
2022/04/04 08:15:02;;;;;;;0.40;0.30;;;23.60;45.20;;;;;;5105400;27;20020;-71
2022/04/04 08:17:28;;;;;;;0.00;0.00;;;23.70;45.00;;;;;;5120765;27;20019;-71
2022/04/04 08:19:57;;;;;;;0.47;0.10;;;24.00;44.40;;;;;;5113633;27;20030;-71
2022/04/04 08:22:23;;;;;;;2.60;1.88;;;24.30;43.60;;;;;;5128606;27;20377;-72
2022/04/04 08:24:50;;;;;;;0.00;0.00;;;24.40;43.40;;;;;;5111216;27;20043;-71
2022/04/04 08:27:19;;;;;;;0.17;0.10;;;24.30;43.30;;;;;;5127839;27;20035;-72
2022/04/04 08:29:45;;;;;;;0.55;0.55;;;24.40;43.10;;;;;;5128431;27;20278;-70
2022/04/04 08:32:11;;;;;;;0.00;0.00;;;24.60;42.70;;;;;;5110453;27;20500;-72
2022/04/04 08:34:43;;;;;;;0.10;0.10;;;24.50;43.70;;;;;;5125564;27;20023;-72
2022/04/04 08:37:09;;;;;;;0.13;0.13;;;24.20;44.50;;;;;;5127972;27;20059;-73
2022/04/04 08:39:35;;;;;;;2.00;1.90;;;24.30;44.70;;;;;;5126107;27;20280;-74
2022/04/04 08:42:03;;;;;;;2.60;1.27;;;24.30;44.60;;;;;;5124586;27;20438;-73
2022/04/04 08:44:29;;;;;;;10.02;0.47;;;24.40;45.30;;;;;;5126665;27;20051;-74
2022/04/04 08:46:55;;;;;;;5.30;1.92;;;24.00;46.50;;;;;;5133732;27;20109;-74
2022/04/04 08:49:21;;;;;;;0.35;0.32;;;23.90;47.10;;;;;;5109285;27;21281;-74
2022/04/04 08:51:51;;;;;;;0.00;0.00;;;23.50;48.60;;;;;;5116997;27;20364;-74
2022/04/04 08:54:18;;;;;;;8.20;3.42;;;23.30;48.30;;;;;;5127199;27;20049;-74
2022/04/04 08:56:44;;;;;;;1.50;1.40;;;23.20;48.10;;;;;;5106118;27;20050;-72
2022/04/04 08:59:10;;;;;;;0.00;0.00;;;23.10;49.30;;;;;;5125440;27;20023;-73
2022/04/04 09:01:36;;;;;;;0.00;0.00;;;23.40;48.70;;;;;;5112733;27;20444;-74
2022/04/04 09:04:05;;;;;;;0.00;0.00;;;23.60;48.50;;;;;;5112966;27;20438;-73
2022/04/04 09:06:47;;;;;;;5.18;4.85;;;23.80;46.80;;;;;;5129463;27;20031;-73
2022/04/04 09:09:37;;;;;;;0.00;0.00;;;24.00;46.40;;;;;;5109470;27;20043;-72
2022/04/04 09:12:28;;;;;;;4.15;3.75;;;24.00;45.90;;;;;;5109436;28;20019;-74
2022/04/04 09:14:58;;;;;;;0.00;0.00;;;24.20;45.90;;;;;;5110010;28;20587;-73
2022/04/04 09:17:27;;;;;;;0.00;0.00;;;24.40;45.60;;;;;;5096502;28;20039;-75
2022/04/04 09:19:54;;;;;;;4.28;1.83;;;24.40;44.60;;;;;;5104350;28;20088;-75
2022/04/04 09:22:21;;;;;;;0.00;0.00;;;24.50;43.90;;;;;;5083175;28;20423;-75
2022/04/04 09:24:50;;;;;;;0.00;0.00;;;24.20;45.40;;;;;;5084221;28;20024;-74
2022/04/04 09:27:21;;;;;;;2.92;2.83;;;23.90;44.40;;;;;;5080225;28;20043;-74
2022/04/04 09:29:49;;;;;;;0.03;0.03;;;24.10;43.80;;;;;;5082754;28;20426;-77
2022/04/04 09:32:15;;;;;;;0.00;0.00;;;24.20;44.00;;;;;;5102938;28;20030;-72
2022/04/04 09:35:02;;;;;;;2.72;2.60;;;24.10;43.50;;;;;;5108336;28;20028;-74
2022/04/04 09:37:33;;;;;;;2.78;2.53;;;24.10;43.10;;;;;;5117496;28;20027;-74
2022/04/04 09:40:08;;;;;;;1.25;1.25;;;24.00;43.70;;;;;;5105002;28;20027;-76
2022/04/04 09:42:35;;;;;;;0.32;0.32;;;24.00;43.60;;;;;;5096352;28;20028;-75
2022/04/04 09:45:11;;;;;;;0.00;0.00;;;24.00;44.80;;;;;;5078932;28;20442;-75
2022/04/04 09:48:03;;;;;;;0.38;0.20;;;23.80;43.90;;;;;;5100494;28;20035;-75
2022/04/04 09:50:46;;;;;;;0.05;0.05;;;23.70;45.10;;;;;;5100102;28;20016;-75
2022/04/04 09:53:29;;;;;;;0.00;0.00;;;23.70;44.80;;;;;;5080915;28;20127;-75
2022/04/04 09:55:58;;;;;;;1.58;1.48;;;23.80;45.50;;;;;;5100172;28;20704;-74
2022/04/04 09:58:26;;;;;;;0.00;0.00;;;23.80;45.40;;;;;;5106125;28;20036;-73
2022/04/04 10:00:54;;;;;;;0.00;0.00;;;23.90;45.00;;;;;;5116765;28;20026;-76
2022/04/04 10:03:23;;;;;;;1.30;1.30;;;23.90;44.20;;;;;;5100382;28;20042;-74
2022/04/04 10:06:00;;;;;;;0.35;0.28;;;24.00;42.80;;;;;;5099999;28;20019;-73
2022/04/04 10:08:27;;;;;;;0.00;0.00;;;23.80;42.40;;;;;;5093543;28;20134;-75
2022/04/04 10:10:57;;;;;;;0.88;0.88;;;23.60;44.00;;;;;;5115996;27;20027;-76
2022/04/04 10:13:24;;;;;;;4.53;2.53;;;23.60;43.50;;;;;;5115529;27;20488;-74
2022/04/04 10:15:51;;;;;;;0.43;0.43;;;23.50;45.40;;;;;;5108815;27;20051;-78
2022/04/04 10:18:19;;;;;;;54.80;4.40;;;23.50;44.50;;;;;;5090036;27;20027;-75
2022/04/04 10:20:53;;;;;;;0.45;0.45;;;23.50;44.20;;;;;;5116553;27;20049;-76
2022/04/04 10:23:20;;;;;;;2.25;2.17;;;23.60;44.00;;;;;;5103280;27;20039;-75
2022/04/04 10:25:50;;;;;;;0.10;0.10;;;23.70;44.40;;;;;;5117047;27;20522;-75
2022/04/04 10:28:34;;;;;;;1.95;1.95;;;23.90;43.80;;;;;;5106176;27;20035;-74
2022/04/04 10:31:23;;;;;;;0.60;0.60;;;24.10;42.70;;;;;;5101799;28;20012;-74
2022/04/04 10:33:52;;;;;;;0.10;0.10;;;24.10;42.80;;;;;;5109146;27;20055;-75
2022/04/04 10:36:24;;;;;;;0.75;0.75;;;24.10;41.80;;;;;;5108773;27;20031;-74
2022/04/04 10:38:52;;;;;;;0.08;0.08;;;23.90;40.40;;;;;;5111096;27;20019;-72
2022/04/04 10:41:20;;;;;;;0.10;0.10;;;23.80;41.20;;;;;;5112538;27;20038;-72
2022/04/04 10:43:49;;;;;;;0.10;0.10;;;23.80;40.60;;;;;;5117053;27;20028;-72
2022/04/04 10:46:19;;;;;;;0.00;0.00;;;23.80;38.10;;;;;;5116613;27;20031;-72
2022/04/04 10:48:51;;;;;;;0.00;0.00;;;23.70;37.80;;;;;;5108067;27;20036;-73
2022/04/04 10:51:20;;;;;;;2.45;2.10;;;23.70;37.30;;;;;;5085425;27;20055;-73
2022/04/04 10:54:04;;;;;;;0.00;0.00;;;23.80;39.00;;;;;;5109677;27;20027;-73
2022/04/04 10:56:42;;;;;;;0.32;0.32;;;23.60;39.90;;;;;;5114588;27;20012;-72
2022/04/04 10:59:20;;;;;;;0.00;0.00;;;23.50;40.70;;;;;;5114711;27;20031;-75
2022/04/04 11:01:49;;;;;;;0.47;0.47;;;23.40;40.30;;;;;;5105049;27;20122;-75
2022/04/04 11:04:36;;;;;;;0.00;0.00;;;23.50;39.80;;;;;;5100544;27;20026;-76
2022/04/04 11:09:55;;;;;;;0.20;0.20;;;23.60;40.50;;;;;;5108016;27;20890;-75
2022/04/04 11:12:24;;;;;;;2.92;1.88;;;23.70;40.90;;;;;;5112114;27;20027;-74
2022/04/04 11:14:54;;;;;;;0.00;0.00;;;23.50;42.20;;;;;;5097382;27;20026;-75
2022/04/04 11:19:55;;;;;;;1.75;1.65;;;23.30;42.40;;;;;;5123339;27;20076;-75
2022/04/04 11:22:26;;;;;;;0.00;0.00;;;23.20;42.10;;;;;;5089733;28;20028;-71
2022/04/04 11:25:05;;;;;;;0.20;0.20;;;23.20;42.50;;;;;;5109087;27;20024;-71
2022/04/04 11:27:35;;;;;;;0.40;0.40;;;23.10;43.10;;;;;;5090006;28;20073;-72
2022/04/04 11:30:10;;;;;;;0.20;0.20;;;23.00;43.80;;;;;;5107077;27;20020;-73
2022/04/04 11:32:40;;;;;;;0.00;0.00;;;23.00;44.90;;;;;;5098347;27;20088;-72
2022/04/04 11:35:21;;;;;;;2.05;1.95;;;23.00;44.90;;;;;;5103725;27;20108;-70
2022/04/04 11:37:50;;;;;;;0.45;0.45;;;23.00;45.20;;;;;;5089737;27;20032;-73
2022/04/04 11:40:29;;;;;;;0.10;0.10;;;23.10;45.30;;;;;;5089696;27;20118;-71
2022/04/04 11:42:57;;;;;;;0.70;0.70;;;23.30;44.50;;;;;;5090380;28;20031;-72
2022/04/04 11:45:25;;;;;;;0.00;0.00;;;23.20;45.30;;;;;;5104350;27;20104;-71
2022/04/04 11:47:57;;;;;;;0.00;0.00;;;23.00;47.00;;;;;;5093445;27;20427;-73
2022/04/04 11:50:28;;;;;;;0.00;0.00;;;22.90;47.00;;;;;;5111733;27;20059;-73
2022/04/04 11:53:06;;;;;;;0.80;0.80;;;22.80;48.00;;;;;;5092168;27;20047;-72
2022/04/04 11:55:36;;;;;;;2.40;0.40;;;22.90;48.70;;;;;;5086177;27;20477;-72
2022/04/04 11:58:12;;;;;;;0.00;0.00;;;22.80;49.00;;;;;;5098628;27;20127;-71
2022/04/04 12:00:53;;;;;;;0.00;0.00;;;22.90;48.80;;;;;;5108268;27;20024;-71
2022/04/04 12:03:20;;;;;;;0.00;0.00;;;22.90;48.90;;;;;;5095872;27;20034;-71
2022/04/04 12:05:50;;;;;;;0.10;0.10;;;22.70;49.60;;;;;;5096561;27;20296;-70
2022/04/04 12:08:18;;;;;;;0.35;0.35;;;22.60;50.40;;;;;;5109761;27;20122;-73
2022/04/04 12:10:47;;;;;;;0.00;0.00;;;22.50;50.40;;;;;;5097781;28;20023;-74
2022/04/04 12:13:19;;;;;;;2.92;2.65;;;22.40;51.50;;;;;;5112463;27;20415;-74
2022/04/04 12:15:47;;;;;;;30.15;7.13;;;22.30;52.00;;;;;;5124204;27;20034;-72
2022/04/04 12:18:19;;;;;;;11.05;2.60;;;22.20;53.30;;;;;;5112439;27;20023;-74
2022/04/04 12:20:47;;;;;;;1.38;1.38;;;22.20;53.10;;;;;;5104800;27;20102;-74
2022/04/04 12:26:02;;;;;;;1.08;1.08;;;22.10;53.70;;;;;;5102276;27;20066;-73
2022/04/04 12:28:30;;;;;;;0.55;0.55;;;22.00;54.30;;;;;;5107216;27;20030;-73
2022/04/04 12:30:57;;;;;;;0.52;0.52;;;21.90;54.40;;;;;;5094411;28;20024;-74
2022/04/04 12:33:31;;;;;;;0.57;0.57;;;21.80;55.00;;;;;;5091416;27;20028;-73
2022/04/04 12:35:58;;;;;;;0.32;0.32;;;21.70;55.20;;;;;;5121437;27;20381;-72
2022/04/04 12:38:30;;;;;;;1.63;1.60;;;21.70;55.00;;;;;;5109852;28;20473;-73
2022/04/04 12:41:02;;;;;;;0.00;0.00;;;21.60;56.10;;;;;;5115228;27;20578;-73
2022/04/04 12:43:28;;;;;;;2.35;2.30;;;21.50;55.90;;;;;;5090100;28;20497;-73
2022/04/04 12:45:54;;;;;;;0.10;0.10;;;21.50;56.70;;;;;;5092164;27;20027;-73
2022/04/04 12:48:21;;;;;;;0.00;0.00;;;21.50;56.80;;;;;;5103767;27;20067;-74
2022/04/04 12:50:49;;;;;;;0.30;0.30;;;21.40;57.20;;;;;;5108258;28;20028;-73
2022/04/04 12:53:18;;;;;;;0.00;0.00;;;21.30;57.00;;;;;;5133756;27;20465;-73
2022/04/04 12:56:03;;;;;;;0.00;0.00;;;21.20;58.20;;;;;;5112668;27;20023;-73
2022/04/04 12:58:30;;;;;;;0.35;0.35;;;21.10;58.20;;;;;;5124122;27;20400;-73
2022/04/04 13:00:56;;;;;;;4.45;4.18;;;21.10;58.30;;;;;;5122904;27;20385;-73
2022/04/04 13:03:25;;;;;;;0.00;0.00;;;21.10;58.90;;;;;;5114659;27;20023;-73
2022/04/04 13:05:56;;;;;;;0.32;0.32;;;21.10;59.10;;;;;;5088504;28;20075;-73